Natrona, Wyoming
Current Conditions -  °F | °C
As of 6:42 PM on Monday 22 Dec 2014 (Local Time) from KCPR Reporting Station
Moderate Snow Moderate Snow  
Wind Chill: 16°   Ceiling: 900
Heat Index: 25°   Visibility: 0.5mi
Dew Point: 23°   Wind: 8mph
Humidity: 92%   Direction: 280°W
Pressure: 29.86"   Gusts: NA
Location:  43.03°N, 106.81°W
Report Text: KCPR 230142Z 28007KT 1/2SM SN FZFG BKN009 OVC021 M04/M05 A2986 RMK AO2 SNB13 P0002 T10391050
Loading
Personal Weather Stations






























Interactive Weather Map New forecast layout! Learn more

10-Day Weather Forecast

Advertisements
Track Severe Weather on mobile